Gratiot, Ohio
Current Conditions -  °F | °C
As of 1:54 AM on Thursday 25 Dec 2014 (Local Time) from KVTA Reporting Station
Overcast Overcast  
Wind Chill: 31°   Ceiling: 2600
Heat Index: 39°   Visibility: 10mi
Dew Point: 33°   Wind: 13mph
Humidity: 79%   Direction: 220°SW
Pressure: 29.7"   Gusts: NA
Location:  39.95°N, 82.22°W
Report Text: KVTA 250654Z AUTO 22011KT 10SM BKN026 OVC065 04/01 A2970 RMK AO2 SLP058 T00390006
Loading
Personal Weather Stations






























Interactive Weather Map New forecast layout! Learn more

10-Day Weather Forecast

Advertisements
Track Severe Weather on mobile